sensor_id;sensor_type;location;lat;lon;timestamp;temperature;humidity
4755;DHT22;2391;47.212;7.542;2022-12-18T00:00:48;2.70;93.10
4755;DHT22;2391;47.212;7.542;2022-12-18T00:03:14;2.80;93.10
4755;DHT22;2391;47.212;7.542;2022-12-18T00:05:48;2.80;92.90
4755;DHT22;2391;47.212;7.542;2022-12-18T00:08:14;2.80;93.00
4755;DHT22;2391;47.212;7.542;2022-12-18T00:10:40;2.80;93.00
4755;DHT22;2391;47.212;7.542;2022-12-18T00:13:06;2.70;93.00
4755;DHT22;2391;47.212;7.542;2022-12-18T00:15:34;2.70;93.00
4755;DHT22;2391;47.212;7.542;2022-12-18T00:18:00;2.80;92.90
4755;DHT22;2391;47.212;7.542;2022-12-18T00:20:26;2.80;92.80
4755;DHT22;2391;47.212;7.542;2022-12-18T00:22:53;2.80;92.80
4755;DHT22;2391;47.212;7.542;2022-12-18T00:25:19;2.80;92.70
4755;DHT22;2391;47.212;7.542;2022-12-18T00:27:45;2.80;92.70
4755;DHT22;2391;47.212;7.542;2022-12-18T00:30:12;2.70;92.80
4755;DHT22;2391;47.212;7.542;2022-12-18T00:32:38;2.70;92.90
4755;DHT22;2391;47.212;7.542;2022-12-18T00:35:06;2.80;92.90
4755;DHT22;2391;47.212;7.542;2022-12-18T00:37:35;2.70;92.80
4755;DHT22;2391;47.212;7.542;2022-12-18T00:40:02;2.70;92.80
4755;DHT22;2391;47.212;7.542;2022-12-18T00:42:29;2.60;92.70
4755;DHT22;2391;47.212;7.542;2022-12-18T00:45:13;2.50;92.70
4755;DHT22;2391;47.212;7.542;2022-12-18T00:47:40;2.50;92.90
4755;DHT22;2391;47.212;7.542;2022-12-18T00:50:07;2.50;92.90
4755;DHT22;2391;47.212;7.542;2022-12-18T00:52:33;2.50;92.90
4755;DHT22;2391;47.212;7.542;2022-12-18T00:54:59;2.50;93.00
4755;DHT22;2391;47.212;7.542;2022-12-18T00:57:26;2.40;93.00
4755;DHT22;2391;47.212;7.542;2022-12-18T00:59:52;2.40;93.00
4755;DHT22;2391;47.212;7.542;2022-12-18T01:02:18;2.30;93.00
4755;DHT22;2391;47.212;7.542;2022-12-18T01:04:44;2.20;93.20
4755;DHT22;2391;47.212;7.542;2022-12-18T01:07:10;2.10;93.10
4755;DHT22;2391;47.212;7.542;2022-12-18T01:09:36;2.00;93.20
4755;DHT22;2391;47.212;7.542;2022-12-18T01:12:03;2.10;93.40
4755;DHT22;2391;47.212;7.542;2022-12-18T01:14:29;2.10;93.30
4755;DHT22;2391;47.212;7.542;2022-12-18T01:16:55;2.10;93.40
4755;DHT22;2391;47.212;7.542;2022-12-18T01:19:21;2.20;93.60
4755;DHT22;2391;47.212;7.542;2022-12-18T01:21:47;2.20;93.30
4755;DHT22;2391;47.212;7.542;2022-12-18T01:24:13;2.20;93.30
4755;DHT22;2391;47.212;7.542;2022-12-18T01:26:40;2.30;93.40
4755;DHT22;2391;47.212;7.542;2022-12-18T01:29:06;2.40;93.30
4755;DHT22;2391;47.212;7.542;2022-12-18T01:31:33;2.50;93.30
4755;DHT22;2391;47.212;7.542;2022-12-18T01:34:04;2.40;93.10
4755;DHT22;2391;47.212;7.542;2022-12-18T01:36:37;2.40;93.00
4755;DHT22;2391;47.212;7.542;2022-12-18T01:39:01;2.40;93.30
4755;DHT22;2391;47.212;7.542;2022-12-18T01:41:30;2.40;93.10
4755;DHT22;2391;47.212;7.542;2022-12-18T01:43:59;2.40;93.00
4755;DHT22;2391;47.212;7.542;2022-12-18T01:46:27;2.20;92.90
4755;DHT22;2391;47.212;7.542;2022-12-18T01:48:58;2.10;93.10
4755;DHT22;2391;47.212;7.542;2022-12-18T01:51:25;2.00;93.20
4755;DHT22;2391;47.212;7.542;2022-12-18T01:53:52;2.10;93.40
4755;DHT22;2391;47.212;7.542;2022-12-18T01:56:19;2.10;93.30
4755;DHT22;2391;47.212;7.542;2022-12-18T02:01:21;2.10;93.10
4755;DHT22;2391;47.212;7.542;2022-12-18T02:03:47;2.10;93.20
4755;DHT22;2391;47.212;7.542;2022-12-18T02:06:37;2.10;93.30
4755;DHT22;2391;47.212;7.542;2022-12-18T02:17:20;2.30;93.20
4755;DHT22;2391;47.212;7.542;2022-12-18T02:27:34;2.10;93.00
4755;DHT22;2391;47.212;7.542;2022-12-18T02:30:04;2.00;93.20
4755;DHT22;2391;47.212;7.542;2022-12-18T02:32:34;1.90;93.40
4755;DHT22;2391;47.212;7.542;2022-12-18T02:35:03;1.90;93.60
4755;DHT22;2391;47.212;7.542;2022-12-18T02:37:31;1.90;93.60
4755;DHT22;2391;47.212;7.542;2022-12-18T02:39:58;1.90;93.60
4755;DHT22;2391;47.212;7.542;2022-12-18T02:42:26;1.90;93.50
4755;DHT22;2391;47.212;7.542;2022-12-18T02:44:56;2.00;93.50
4755;DHT22;2391;47.212;7.542;2022-12-18T02:47:27;2.00;93.50
4755;DHT22;2391;47.212;7.542;2022-12-18T02:50:22;2.10;93.50
4755;DHT22;2391;47.212;7.542;2022-12-18T02:53:15;2.10;93.60
4755;DHT22;2391;47.212;7.542;2022-12-18T02:58:43;2.00;93.20
4755;DHT22;2391;47.212;7.542;2022-12-18T03:01:30;1.90;93.40
4755;DHT22;2391;47.212;7.542;2022-12-18T03:03:59;1.90;93.50
4755;DHT22;2391;47.212;7.542;2022-12-18T03:06:40;1.80;93.90
4755;DHT22;2391;47.212;7.542;2022-12-18T03:09:11;1.90;93.60
4755;DHT22;2391;47.212;7.542;2022-12-18T03:11:40;1.90;93.60
4755;DHT22;2391;47.212;7.542;2022-12-18T03:14:27;1.90;93.60
4755;DHT22;2391;47.212;7.542;2022-12-18T03:16:57;1.90;93.60
4755;DHT22;2391;47.212;7.542;2022-12-18T03:19:27;1.90;93.60
4755;DHT22;2391;47.212;7.542;2022-12-18T03:21:57;2.00;93.60
4755;DHT22;2391;47.212;7.542;2022-12-18T03:24:26;2.10;93.70
4755;DHT22;2391;47.212;7.542;2022-12-18T03:26:56;2.10;93.50
4755;DHT22;2391;47.212;7.542;2022-12-18T03:29:29;2.10;93.40
4755;DHT22;2391;47.212;7.542;2022-12-18T03:31:59;2.00;93.40
4755;DHT22;2391;47.212;7.542;2022-12-18T03:34:28;2.00;93.40
4755;DHT22;2391;47.212;7.542;2022-12-18T03:36:55;2.00;93.70
4755;DHT22;2391;47.212;7.542;2022-12-18T03:39:21;2.00;93.50
4755;DHT22;2391;47.212;7.542;2022-12-18T03:44:29;2.10;93.50
4755;DHT22;2391;47.212;7.542;2022-12-18T03:50:16;2.20;93.30
4755;DHT22;2391;47.212;7.542;2022-12-18T03:55:22;2.30;93.60
4755;DHT22;2391;47.212;7.542;2022-12-18T03:57:49;2.20;93.30
4755;DHT22;2391;47.212;7.542;2022-12-18T04:00:19;2.30;93.40
4755;DHT22;2391;47.212;7.542;2022-12-18T04:02:51;2.30;93.30
4755;DHT22;2391;47.212;7.542;2022-12-18T04:05:15;2.40;93.20
4755;DHT22;2391;47.212;7.542;2022-12-18T04:07:44;2.40;93.20
4755;DHT22;2391;47.212;7.542;2022-12-18T04:10:12;2.50;93.20
4755;DHT22;2391;47.212;7.542;2022-12-18T04:12:39;2.50;93.10
4755;DHT22;2391;47.212;7.542;2022-12-18T04:15:06;2.60;93.10
4755;DHT22;2391;47.212;7.542;2022-12-18T04:17:33;2.60;93.10
4755;DHT22;2391;47.212;7.542;2022-12-18T04:19:59;2.70;93.00
4755;DHT22;2391;47.212;7.542;2022-12-18T04:22:25;2.70;92.90
4755;DHT22;2391;47.212;7.542;2022-12-18T04:24:51;2.70;92.80
4755;DHT22;2391;47.212;7.542;2022-12-18T04:27:17;2.60;92.80
4755;DHT22;2391;47.212;7.542;2022-12-18T04:29:44;2.60;92.80
4755;DHT22;2391;47.212;7.542;2022-12-18T04:32:10;2.60;92.80
4755;DHT22;2391;47.212;7.542;2022-12-18T04:34:36;2.60;92.80
4755;DHT22;2391;47.212;7.542;2022-12-18T04:37:03;2.60;92.80
4755;DHT22;2391;47.212;7.542;2022-12-18T04:39:29;2.60;92.80
4755;DHT22;2391;47.212;7.542;2022-12-18T04:41:55;2.60;92.80
4755;DHT22;2391;47.212;7.542;2022-12-18T04:44:21;2.60;93.10
4755;DHT22;2391;47.212;7.542;2022-12-18T04:46:48;2.60;92.80
4755;DHT22;2391;47.212;7.542;2022-12-18T04:49:14;2.60;92.80
4755;DHT22;2391;47.212;7.542;2022-12-18T04:51:40;2.50;92.80
4755;DHT22;2391;47.212;7.542;2022-12-18T04:54:07;2.40;93.00
4755;DHT22;2391;47.212;7.542;2022-12-18T04:56:33;2.40;93.00
4755;DHT22;2391;47.212;7.542;2022-12-18T04:58:59;2.40;93.00
4755;DHT22;2391;47.212;7.542;2022-12-18T05:01:25;2.40;93.10
4755;DHT22;2391;47.212;7.542;2022-12-18T05:03:52;2.50;93.10
4755;DHT22;2391;47.212;7.542;2022-12-18T05:06:18;2.50;93.10
4755;DHT22;2391;47.212;7.542;2022-12-18T05:08:44;2.60;93.10
4755;DHT22;2391;47.212;7.542;2022-12-18T05:11:12;2.70;93.00
4755;DHT22;2391;47.212;7.542;2022-12-18T05:13:41;2.80;93.00
4755;DHT22;2391;47.212;7.542;2022-12-18T05:16:08;2.80;92.90
4755;DHT22;2391;47.212;7.542;2022-12-18T05:18:34;2.90;92.90
4755;DHT22;2391;47.212;7.542;2022-12-18T05:21:01;2.90;92.90
4755;DHT22;2391;47.212;7.542;2022-12-18T05:23:27;2.90;92.80
4755;DHT22;2391;47.212;7.542;2022-12-18T05:26:02;2.70;92.90
4755;DHT22;2391;47.212;7.542;2022-12-18T05:28:30;2.60;93.00
4755;DHT22;2391;47.212;7.542;2022-12-18T05:30:59;2.60;93.00
4755;DHT22;2391;47.212;7.542;2022-12-18T05:33:27;2.60;93.10
4755;DHT22;2391;47.212;7.542;2022-12-18T05:35:56;2.70;93.10
4755;DHT22;2391;47.212;7.542;2022-12-18T05:38:24;2.80;93.20
4755;DHT22;2391;47.212;7.542;2022-12-18T05:40:51;2.80;93.10
4755;DHT22;2391;47.212;7.542;2022-12-18T05:43:19;2.90;93.10
4755;DHT22;2391;47.212;7.542;2022-12-18T05:45:46;2.90;93.40
4755;DHT22;2391;47.212;7.542;2022-12-18T05:48:12;2.90;93.00
4755;DHT22;2391;47.212;7.542;2022-12-18T05:50:40;2.90;93.10
4755;DHT22;2391;47.212;7.542;2022-12-18T05:53:07;2.80;92.90
4755;DHT22;2391;47.212;7.542;2022-12-18T05:55:35;2.80;93.00
4755;DHT22;2391;47.212;7.542;2022-12-18T05:58:03;2.70;92.70
4755;DHT22;2391;47.212;7.542;2022-12-18T06:00:30;2.60;93.00
4755;DHT22;2391;47.212;7.542;2022-12-18T06:02:58;2.50;93.10
4755;DHT22;2391;47.212;7.542;2022-12-18T06:05:25;2.40;93.10
4755;DHT22;2391;47.212;7.542;2022-12-18T06:07:51;2.40;93.30
4755;DHT22;2391;47.212;7.542;2022-12-18T06:10:17;2.30;93.40
4755;DHT22;2391;47.212;7.542;2022-12-18T06:12:44;2.40;93.40
4755;DHT22;2391;47.212;7.542;2022-12-18T06:15:11;2.30;93.40
4755;DHT22;2391;47.212;7.542;2022-12-18T06:17:37;2.40;93.40
4755;DHT22;2391;47.212;7.542;2022-12-18T06:20:04;2.30;93.50
4755;DHT22;2391;47.212;7.542;2022-12-18T06:22:31;2.20;93.50
4755;DHT22;2391;47.212;7.542;2022-12-18T06:24:58;2.20;93.60
4755;DHT22;2391;47.212;7.542;2022-12-18T06:27:25;2.20;93.70
4755;DHT22;2391;47.212;7.542;2022-12-18T06:29:51;2.30;93.70
4755;DHT22;2391;47.212;7.542;2022-12-18T06:32:17;2.20;93.70
4755;DHT22;2391;47.212;7.542;2022-12-18T06:34:43;2.30;93.80
4755;DHT22;2391;47.212;7.542;2022-12-18T06:37:09;2.30;93.80
4755;DHT22;2391;47.212;7.542;2022-12-18T06:39:35;2.40;93.80
4755;DHT22;2391;47.212;7.542;2022-12-18T06:42:03;2.40;93.90
4755;DHT22;2391;47.212;7.542;2022-12-18T06:44:29;2.40;93.90
4755;DHT22;2391;47.212;7.542;2022-12-18T06:46:55;2.50;93.80
4755;DHT22;2391;47.212;7.542;2022-12-18T06:49:21;2.50;93.80
4755;DHT22;2391;47.212;7.542;2022-12-18T06:51:47;2.50;93.80
4755;DHT22;2391;47.212;7.542;2022-12-18T06:54:13;2.50;93.80
4755;DHT22;2391;47.212;7.542;2022-12-18T06:56:39;2.50;93.80
4755;DHT22;2391;47.212;7.542;2022-12-18T06:59:05;2.60;93.80
4755;DHT22;2391;47.212;7.542;2022-12-18T07:01:32;2.60;93.90
4755;DHT22;2391;47.212;7.542;2022-12-18T07:03:58;2.60;93.90
4755;DHT22;2391;47.212;7.542;2022-12-18T07:06:25;2.60;93.70
4755;DHT22;2391;47.212;7.542;2022-12-18T07:08:53;2.60;93.80
4755;DHT22;2391;47.212;7.542;2022-12-18T07:11:20;2.60;93.70
4755;DHT22;2391;47.212;7.542;2022-12-18T07:13:46;2.60;93.70
4755;DHT22;2391;47.212;7.542;2022-12-18T07:16:15;2.50;93.70
4755;DHT22;2391;47.212;7.542;2022-12-18T07:18:41;2.40;93.90
4755;DHT22;2391;47.212;7.542;2022-12-18T07:21:09;2.30;94.10
4755;DHT22;2391;47.212;7.542;2022-12-18T07:23:36;2.30;94.20
4755;DHT22;2391;47.212;7.542;2022-12-18T07:26:08;2.30;94.30
4755;DHT22;2391;47.212;7.542;2022-12-18T07:28:35;2.30;94.30
4755;DHT22;2391;47.212;7.542;2022-12-18T07:31:06;2.30;94.30
4755;DHT22;2391;47.212;7.542;2022-12-18T07:33:34;2.40;94.20
4755;DHT22;2391;47.212;7.542;2022-12-18T07:36:01;2.30;94.20
4755;DHT22;2391;47.212;7.542;2022-12-18T07:38:29;2.30;94.20
4755;DHT22;2391;47.212;7.542;2022-12-18T07:41:08;2.30;94.30
4755;DHT22;2391;47.212;7.542;2022-12-18T07:43:35;2.30;94.30
4755;DHT22;2391;47.212;7.542;2022-12-18T07:46:02;2.30;94.30
4755;DHT22;2391;47.212;7.542;2022-12-18T07:48:28;2.30;94.30
4755;DHT22;2391;47.212;7.542;2022-12-18T07:50:59;2.30;94.40
4755;DHT22;2391;47.212;7.542;2022-12-18T07:53:26;2.20;94.30
4755;DHT22;2391;47.212;7.542;2022-12-18T07:55:57;2.20;94.40
4755;DHT22;2391;47.212;7.542;2022-12-18T07:58:24;2.20;94.50
4755;DHT22;2391;47.212;7.542;2022-12-18T08:00:51;2.20;94.50
4755;DHT22;2391;47.212;7.542;2022-12-18T08:03:18;2.20;94.50
4755;DHT22;2391;47.212;7.542;2022-12-18T08:05:44;2.20;94.40
4755;DHT22;2391;47.212;7.542;2022-12-18T08:08:11;2.30;94.40
4755;DHT22;2391;47.212;7.542;2022-12-18T08:10:37;2.30;94.40
4755;DHT22;2391;47.212;7.542;2022-12-18T08:13:03;2.30;94.40
4755;DHT22;2391;47.212;7.542;2022-12-18T08:15:30;2.40;94.30
4755;DHT22;2391;47.212;7.542;2022-12-18T08:17:57;2.40;94.40
4755;DHT22;2391;47.212;7.542;2022-12-18T08:20:23;2.40;94.20
4755;DHT22;2391;47.212;7.542;2022-12-18T08:22:48;2.40;94.10
4755;DHT22;2391;47.212;7.542;2022-12-18T08:25:15;2.40;94.20
4755;DHT22;2391;47.212;7.542;2022-12-18T08:27:41;2.40;94.10
4755;DHT22;2391;47.212;7.542;2022-12-18T08:30:08;2.40;94.10
4755;DHT22;2391;47.212;7.542;2022-12-18T08:32:34;2.40;94.10
4755;DHT22;2391;47.212;7.542;2022-12-18T08:35:00;2.50;94.20
4755;DHT22;2391;47.212;7.542;2022-12-18T08:37:27;2.50;94.20
4755;DHT22;2391;47.212;7.542;2022-12-18T08:39:53;2.60;94.20
4755;DHT22;2391;47.212;7.542;2022-12-18T08:42:19;2.60;94.20
4755;DHT22;2391;47.212;7.542;2022-12-18T08:45:04;2.60;94.20
4755;DHT22;2391;47.212;7.542;2022-12-18T08:47:30;2.50;94.20
4755;DHT22;2391;47.212;7.542;2022-12-18T08:49:56;2.50;94.30
4755;DHT22;2391;47.212;7.542;2022-12-18T08:52:23;2.50;94.40
4755;DHT22;2391;47.212;7.542;2022-12-18T08:54:49;2.50;94.30
4755;DHT22;2391;47.212;7.542;2022-12-18T08:57:15;2.40;94.50
4755;DHT22;2391;47.212;7.542;2022-12-18T08:59:41;2.40;94.60
4755;DHT22;2391;47.212;7.542;2022-12-18T09:02:10;2.40;94.60
4755;DHT22;2391;47.212;7.542;2022-12-18T09:04:36;2.20;94.60
4755;DHT22;2391;47.212;7.542;2022-12-18T09:07:02;2.20;94.80
4755;DHT22;2391;47.212;7.542;2022-12-18T09:09:29;2.10;95.00
4755;DHT22;2391;47.212;7.542;2022-12-18T09:11:55;2.10;95.00
4755;DHT22;2391;47.212;7.542;2022-12-18T09:14:21;2.10;95.00
4755;DHT22;2391;47.212;7.542;2022-12-18T09:16:47;2.10;95.00
4755;DHT22;2391;47.212;7.542;2022-12-18T09:19:13;2.20;95.10
4755;DHT22;2391;47.212;7.542;2022-12-18T09:21:39;2.10;95.00
4755;DHT22;2391;47.212;7.542;2022-12-18T09:24:08;2.10;95.00
4755;DHT22;2391;47.212;7.542;2022-12-18T09:26:34;2.20;95.20
4755;DHT22;2391;47.212;7.542;2022-12-18T09:29:00;2.20;95.10
4755;DHT22;2391;47.212;7.542;2022-12-18T09:31:27;2.20;95.00
4755;DHT22;2391;47.212;7.542;2022-12-18T09:33:55;2.30;95.10
4755;DHT22;2391;47.212;7.542;2022-12-18T09:36:23;2.30;95.00
4755;DHT22;2391;47.212;7.542;2022-12-18T09:38:49;2.30;95.10
4755;DHT22;2391;47.212;7.542;2022-12-18T09:41:20;2.30;95.10
4755;DHT22;2391;47.212;7.542;2022-12-18T09:43:50;2.40;95.20
4755;DHT22;2391;47.212;7.542;2022-12-18T09:46:25;2.40;95.00
4755;DHT22;2391;47.212;7.542;2022-12-18T09:48:49;2.40;95.00
4755;DHT22;2391;47.212;7.542;2022-12-18T09:51:25;2.50;95.00
4755;DHT22;2391;47.212;7.542;2022-12-18T09:53:57;2.50;94.90
4755;DHT22;2391;47.212;7.542;2022-12-18T09:56:20;2.50;94.80
4755;DHT22;2391;47.212;7.542;2022-12-18T09:58:55;2.50;94.90
4755;DHT22;2391;47.212;7.542;2022-12-18T10:01:22;2.40;95.10
4755;DHT22;2391;47.212;7.542;2022-12-18T10:03:50;2.50;95.20
4755;DHT22;2391;47.212;7.542;2022-12-18T10:19:53;2.40;95.20
4755;DHT22;2391;47.212;7.542;2022-12-18T10:27:44;2.40;95.20
4755;DHT22;2391;47.212;7.542;2022-12-18T10:30:20;2.40;95.20
4755;DHT22;2391;47.212;7.542;2022-12-18T10:32:43;2.50;94.90
4755;DHT22;2391;47.212;7.542;2022-12-18T10:35:15;2.50;94.90
4755;DHT22;2391;47.212;7.542;2022-12-18T10:37:58;2.50;94.90
4755;DHT22;2391;47.212;7.542;2022-12-18T10:40:16;2.60;95.00
4755;DHT22;2391;47.212;7.542;2022-12-18T10:42:39;2.60;94.90
4755;DHT22;2391;47.212;7.542;2022-12-18T10:45:12;2.70;95.00
4755;DHT22;2391;47.212;7.542;2022-12-18T10:47:43;2.70;95.10
4755;DHT22;2391;47.212;7.542;2022-12-18T10:50:27;2.70;94.80
4755;DHT22;2391;47.212;7.542;2022-12-18T10:52:58;2.70;94.70
4755;DHT22;2391;47.212;7.542;2022-12-18T10:55:34;2.70;94.60
4755;DHT22;2391;47.212;7.542;2022-12-18T10:58:29;2.60;94.90
4755;DHT22;2391;47.212;7.542;2022-12-18T11:03:40;2.70;95.00
4755;DHT22;2391;47.212;7.542;2022-12-18T11:06:07;2.70;94.90
4755;DHT22;2391;47.212;7.542;2022-12-18T11:08:34;2.70;95.00
4755;DHT22;2391;47.212;7.542;2022-12-18T11:11:00;2.80;95.00
4755;DHT22;2391;47.212;7.542;2022-12-18T11:13:28;2.80;94.90
4755;DHT22;2391;47.212;7.542;2022-12-18T11:15:55;2.80;94.90
4755;DHT22;2391;47.212;7.542;2022-12-18T11:20:59;2.70;94.80
4755;DHT22;2391;47.212;7.542;2022-12-18T11:23:27;2.70;94.90
4755;DHT22;2391;47.212;7.542;2022-12-18T11:25:57;2.70;95.00
4755;DHT22;2391;47.212;7.542;2022-12-18T11:28:43;2.60;94.90
4755;DHT22;2391;47.212;7.542;2022-12-18T11:31:26;2.70;95.00
4755;DHT22;2391;47.212;7.542;2022-12-18T11:36:48;2.60;94.90
4755;DHT22;2391;47.212;7.542;2022-12-18T11:39:20;2.60;95.10
4755;DHT22;2391;47.212;7.542;2022-12-18T11:42:04;2.60;95.30
4755;DHT22;2391;47.212;7.542;2022-12-18T11:44:59;2.70;95.30
4755;DHT22;2391;47.212;7.542;2022-12-18T11:47:42;2.70;95.00
4755;DHT22;2391;47.212;7.542;2022-12-18T11:50:18;2.60;95.40
4755;DHT22;2391;47.212;7.542;2022-12-18T11:52:45;2.60;95.30
4755;DHT22;2391;47.212;7.542;2022-12-18T11:55:13;2.50;95.40
4755;DHT22;2391;47.212;7.542;2022-12-18T11:57:49;2.50;95.50
4755;DHT22;2391;47.212;7.542;2022-12-18T12:00:21;2.50;95.50
4755;DHT22;2391;47.212;7.542;2022-12-18T12:16:54;2.70;95.20
4755;DHT22;2391;47.212;7.542;2022-12-18T12:22:13;2.70;95.40
4755;DHT22;2391;47.212;7.542;2022-12-18T12:30:30;2.90;95.40
4755;DHT22;2391;47.212;7.542;2022-12-18T12:35:59;2.90;95.10
4755;DHT22;2391;47.212;7.542;2022-12-18T12:38:35;2.90;95.10
4755;DHT22;2391;47.212;7.542;2022-12-18T12:41:01;3.00;95.30
4755;DHT22;2391;47.212;7.542;2022-12-18T12:43:40;3.00;95.30
4755;DHT22;2391;47.212;7.542;2022-12-18T12:46:11;3.00;95.10
4755;DHT22;2391;47.212;7.542;2022-12-18T12:51:28;3.20;95.20
4755;DHT22;2391;47.212;7.542;2022-12-18T12:53:57;3.20;95.10
4755;DHT22;2391;47.212;7.542;2022-12-18T12:56:31;3.10;95.10
4755;DHT22;2391;47.212;7.542;2022-12-18T12:59:19;3.10;95.20
4755;DHT22;2391;47.212;7.542;2022-12-18T13:04:41;3.10;95.20
4755;DHT22;2391;47.212;7.542;2022-12-18T13:07:14;3.10;95.20
4755;DHT22;2391;47.212;7.542;2022-12-18T13:10:11;3.00;95.30
4755;DHT22;2391;47.212;7.542;2022-12-18T13:12:10;3.00;95.30
4755;DHT22;2391;47.212;7.542;2022-12-18T13:15:11;3.00;95.40
4755;DHT22;2391;47.212;7.542;2022-12-18T13:17:32;3.00;95.40
4755;DHT22;2391;47.212;7.542;2022-12-18T13:20:11;3.10;95.60
4755;DHT22;2391;47.212;7.542;2022-12-18T13:25:34;3.20;95.40
4755;DHT22;2391;47.212;7.542;2022-12-18T13:28:15;3.20;95.40
4755;DHT22;2391;47.212;7.542;2022-12-18T13:30:53;3.20;95.40
4755;DHT22;2391;47.212;7.542;2022-12-18T13:33:36;3.30;95.40
4755;DHT22;2391;47.212;7.542;2022-12-18T13:36:09;3.40;95.30
4755;DHT22;2391;47.212;7.542;2022-12-18T13:38:38;3.50;95.30
4755;DHT22;2391;47.212;7.542;2022-12-18T13:43:50;3.50;95.10
4755;DHT22;2391;47.212;7.542;2022-12-18T13:46:42;3.50;95.10
4755;DHT22;2391;47.212;7.542;2022-12-18T13:49:23;3.50;95.10
4755;DHT22;2391;47.212;7.542;2022-12-18T13:51:51;3.50;95.20
4755;DHT22;2391;47.212;7.542;2022-12-18T13:54:39;3.60;95.30
4755;DHT22;2391;47.212;7.542;2022-12-18T13:57:24;3.60;95.20
4755;DHT22;2391;47.212;7.542;2022-12-18T13:59:38;3.60;95.30
4755;DHT22;2391;47.212;7.542;2022-12-18T14:02:16;3.60;95.20
4755;DHT22;2391;47.212;7.542;2022-12-18T14:04:45;3.70;95.10
4755;DHT22;2391;47.212;7.542;2022-12-18T14:09:45;3.60;95.20
4755;DHT22;2391;47.212;7.542;2022-12-18T14:12:30;3.70;95.30
4755;DHT22;2391;47.212;7.542;2022-12-18T14:18:01;3.80;95.10
4755;DHT22;2391;47.212;7.542;2022-12-18T14:20:31;3.90;95.00
4755;DHT22;2391;47.212;7.542;2022-12-18T14:22:58;4.00;94.90
4755;DHT22;2391;47.212;7.542;2022-12-18T14:25:27;3.90;94.70
4755;DHT22;2391;47.212;7.542;2022-12-18T14:30:37;3.80;94.90
4755;DHT22;2391;47.212;7.542;2022-12-18T14:33:27;3.70;95.00
4755;DHT22;2391;47.212;7.542;2022-12-18T14:35:34;3.80;95.00
4755;DHT22;2391;47.212;7.542;2022-12-18T14:38:22;3.80;95.00
4755;DHT22;2391;47.212;7.542;2022-12-18T14:40:47;3.80;95.00
4755;DHT22;2391;47.212;7.542;2022-12-18T14:43:13;3.80;94.90
4755;DHT22;2391;47.212;7.542;2022-12-18T14:45:42;3.80;94.80
4755;DHT22;2391;47.212;7.542;2022-12-18T14:48:17;3.70;94.80
4755;DHT22;2391;47.212;7.542;2022-12-18T14:50:45;3.70;94.90
4755;DHT22;2391;47.212;7.542;2022-12-18T14:53:21;3.70;94.90
4755;DHT22;2391;47.212;7.542;2022-12-18T14:55:48;3.70;95.20
4755;DHT22;2391;47.212;7.542;2022-12-18T14:58:16;3.80;94.90
4755;DHT22;2391;47.212;7.542;2022-12-18T15:00:43;3.80;94.90
4755;DHT22;2391;47.212;7.542;2022-12-18T15:03:09;3.80;94.90
4755;DHT22;2391;47.212;7.542;2022-12-18T15:05:36;3.80;94.90
4755;DHT22;2391;47.212;7.542;2022-12-18T15:08:02;3.90;94.90
4755;DHT22;2391;47.212;7.542;2022-12-18T15:10:30;4.10;94.80
4755;DHT22;2391;47.212;7.542;2022-12-18T15:20:58;4.40;94.40
4755;DHT22;2391;47.212;7.542;2022-12-18T15:23:52;4.40;94.20
4755;DHT22;2391;47.212;7.542;2022-12-18T15:26:20;4.50;94.20
4755;DHT22;2391;47.212;7.542;2022-12-18T15:28:49;4.50;94.20
4755;DHT22;2391;47.212;7.542;2022-12-18T15:36:20;4.50;94.00
4755;DHT22;2391;47.212;7.542;2022-12-18T15:38:48;4.50;94.00
4755;DHT22;2391;47.212;7.542;2022-12-18T15:41:16;4.50;93.90
4755;DHT22;2391;47.212;7.542;2022-12-18T15:43:43;4.60;93.90
4755;DHT22;2391;47.212;7.542;2022-12-18T15:46:17;4.50;93.80
4755;DHT22;2391;47.212;7.542;2022-12-18T15:48:46;4.50;93.80
4755;DHT22;2391;47.212;7.542;2022-12-18T15:51:21;4.50;93.80
4755;DHT22;2391;47.212;7.542;2022-12-18T15:53:51;4.50;93.80
4755;DHT22;2391;47.212;7.542;2022-12-18T15:56:18;4.40;93.80
4755;DHT22;2391;47.212;7.542;2022-12-18T15:59:15;4.40;93.80
4755;DHT22;2391;47.212;7.542;2022-12-18T16:01:32;4.40;93.70
4755;DHT22;2391;47.212;7.542;2022-12-18T16:03:58;4.40;94.00
4755;DHT22;2391;47.212;7.542;2022-12-18T16:06:24;4.40;94.10
4755;DHT22;2391;47.212;7.542;2022-12-18T16:08:50;4.40;93.80
4755;DHT22;2391;47.212;7.542;2022-12-18T16:11:22;4.30;93.70
4755;DHT22;2391;47.212;7.542;2022-12-18T16:13:50;4.30;93.80
4755;DHT22;2391;47.212;7.542;2022-12-18T16:16:16;4.30;93.90
4755;DHT22;2391;47.212;7.542;2022-12-18T16:18:42;4.30;93.90
4755;DHT22;2391;47.212;7.542;2022-12-18T16:21:08;4.30;94.00
4755;DHT22;2391;47.212;7.542;2022-12-18T16:23:34;4.30;94.00
4755;DHT22;2391;47.212;7.542;2022-12-18T16:26:00;4.30;94.00
4755;DHT22;2391;47.212;7.542;2022-12-18T16:28:26;4.30;94.00
4755;DHT22;2391;47.212;7.542;2022-12-18T16:30:52;4.30;94.00
4755;DHT22;2391;47.212;7.542;2022-12-18T16:33:18;4.20;93.90
4755;DHT22;2391;47.212;7.542;2022-12-18T16:35:50;4.20;94.00
4755;DHT22;2391;47.212;7.542;2022-12-18T16:38:13;4.20;94.00
4755;DHT22;2391;47.212;7.542;2022-12-18T16:40:39;4.20;94.00
4755;DHT22;2391;47.212;7.542;2022-12-18T16:43:07;4.20;94.10
4755;DHT22;2391;47.212;7.542;2022-12-18T16:45:33;4.20;94.10
4755;DHT22;2391;47.212;7.542;2022-12-18T16:47:59;4.20;94.10
4755;DHT22;2391;47.212;7.542;2022-12-18T16:50:25;4.20;94.20
4755;DHT22;2391;47.212;7.542;2022-12-18T16:52:51;4.20;94.20
4755;DHT22;2391;47.212;7.542;2022-12-18T16:55:19;4.20;94.30
4755;DHT22;2391;47.212;7.542;2022-12-18T16:57:45;4.20;94.30
4755;DHT22;2391;47.212;7.542;2022-12-18T17:00:12;4.30;94.30
4755;DHT22;2391;47.212;7.542;2022-12-18T17:02:38;4.30;94.30
4755;DHT22;2391;47.212;7.542;2022-12-18T17:05:04;4.30;94.40
4755;DHT22;2391;47.212;7.542;2022-12-18T17:07:30;4.30;94.30
4755;DHT22;2391;47.212;7.542;2022-12-18T17:09:56;4.30;94.30
4755;DHT22;2391;47.212;7.542;2022-12-18T17:12:22;4.20;94.30
4755;DHT22;2391;47.212;7.542;2022-12-18T17:14:49;4.20;94.40
4755;DHT22;2391;47.212;7.542;2022-12-18T17:17:14;4.20;94.40
4755;DHT22;2391;47.212;7.542;2022-12-18T17:19:40;4.20;94.40
4755;DHT22;2391;47.212;7.542;2022-12-18T17:22:06;4.20;94.40
4755;DHT22;2391;47.212;7.542;2022-12-18T17:24:33;4.20;94.40
4755;DHT22;2391;47.212;7.542;2022-12-18T17:26:59;4.20;94.40
4755;DHT22;2391;47.212;7.542;2022-12-18T17:29:25;4.20;94.50
4755;DHT22;2391;47.212;7.542;2022-12-18T17:31:51;4.20;94.50
4755;DHT22;2391;47.212;7.542;2022-12-18T17:34:17;4.20;94.50
4755;DHT22;2391;47.212;7.542;2022-12-18T17:36:43;4.20;94.50
4755;DHT22;2391;47.212;7.542;2022-12-18T17:39:15;4.20;94.50
4755;DHT22;2391;47.212;7.542;2022-12-18T17:41:38;4.20;94.40
4755;DHT22;2391;47.212;7.542;2022-12-18T17:44:04;4.20;94.40
4755;DHT22;2391;47.212;7.542;2022-12-18T17:46:32;4.30;94.40
4755;DHT22;2391;47.212;7.542;2022-12-18T17:49:00;4.30;94.40
4755;DHT22;2391;47.212;7.542;2022-12-18T17:51:27;4.30;94.40
4755;DHT22;2391;47.212;7.542;2022-12-18T17:53:53;4.30;94.40
4755;DHT22;2391;47.212;7.542;2022-12-18T17:56:20;4.30;94.40
4755;DHT22;2391;47.212;7.542;2022-12-18T17:58:47;4.30;94.40
4755;DHT22;2391;47.212;7.542;2022-12-18T18:01:17;4.30;94.40
4755;DHT22;2391;47.212;7.542;2022-12-18T18:03:44;4.30;94.40
4755;DHT22;2391;47.212;7.542;2022-12-18T18:06:10;4.30;94.40
4755;DHT22;2391;47.212;7.542;2022-12-18T18:08:36;4.30;94.40
4755;DHT22;2391;47.212;7.542;2022-12-18T18:11:06;4.20;94.50
4755;DHT22;2391;47.212;7.542;2022-12-18T18:13:51;4.20;94.50
4755;DHT22;2391;47.212;7.542;2022-12-18T18:16:38;4.30;94.50
4755;DHT22;2391;47.212;7.542;2022-12-18T18:19:07;4.30;94.60
4755;DHT22;2391;47.212;7.542;2022-12-18T18:21:39;4.20;94.50
4755;DHT22;2391;47.212;7.542;2022-12-18T18:24:06;4.20;94.90